createdAt,value
2023-05-01T00:00:40.769Z,5.95
2023-05-01T00:02:43.684Z,8.27
2023-05-01T00:04:46.593Z,9.40
2023-05-01T00:06:49.593Z,7.50
2023-05-01T00:08:52.433Z,6.18
2023-05-01T00:10:55.317Z,5.80
2023-05-01T00:12:57.972Z,5.68
2023-05-01T00:15:00.647Z,5.55
2023-05-01T00:17:04.755Z,6.68
2023-05-01T00:19:08.274Z,6.93
2023-05-01T00:21:11.065Z,5.88
2023-05-01T00:23:13.769Z,5.97
2023-05-01T00:25:16.630Z,6.93
2023-05-01T00:27:19.367Z,7.55
2023-05-01T00:29:22.205Z,6.82
2023-05-01T00:31:25.674Z,5.78
2023-05-01T00:33:29.855Z,6.25
2023-05-01T00:35:32.573Z,6.72
2023-05-01T00:37:35.712Z,7.80
2023-05-01T00:39:38.892Z,6.95
2023-05-01T00:41:41.672Z,7.20
2023-05-01T00:43:44.365Z,9.05
2023-05-01T00:45:47.403Z,7.40
2023-05-01T00:47:50.383Z,8.40
2023-05-01T00:49:56.422Z,7.72
2023-05-01T00:51:59.624Z,7.35
2023-05-01T00:54:03.507Z,6.97
2023-05-01T00:56:07.279Z,8.38
2023-05-01T00:58:11.969Z,9.38
2023-05-01T01:00:16.909Z,7.18
2023-05-01T01:02:19.657Z,6.97
2023-05-01T01:04:22.526Z,7.25
2023-05-01T01:06:34.555Z,7.28
2023-05-01T01:08:43.457Z,6.10
2023-05-01T01:10:54.203Z,6.72
2023-05-01T01:13:05.566Z,6.03
2023-05-01T01:15:16.015Z,8.20
2023-05-01T01:17:25.575Z,8.07
2023-05-01T01:19:58.473Z,6.07
2023-05-01T01:22:09.138Z,8.35
2023-05-01T01:24:30.845Z,8.82
2023-05-01T01:27:14.532Z,6.03
2023-05-01T01:29:44.940Z,7.10
2023-05-01T01:31:58.347Z,7.03
2023-05-01T01:34:12.918Z,8.52
2023-05-01T01:36:20.060Z,6.30
2023-05-01T01:38:26.395Z,6.85
2023-05-01T01:40:34.555Z,6.75
2023-05-01T01:42:41.668Z,6.15
2023-05-01T01:44:50.992Z,5.80
2023-05-01T01:46:55.803Z,7.95
2023-05-01T01:48:59.345Z,5.80
2023-05-01T01:51:10.442Z,6.03
2023-05-01T01:53:17.442Z,6.75
2023-05-01T01:55:23.991Z,6.10
2023-05-01T01:57:28.256Z,6.95
2023-05-01T01:59:34.820Z,6.28
2023-05-01T02:01:39.760Z,7.13
2023-05-01T02:03:42.960Z,5.15
2023-05-01T02:05:47.934Z,7.95
2023-05-01T02:07:53.754Z,6.18
2023-05-01T02:09:58.792Z,5.82
2023-05-01T02:12:03.834Z,6.20
2023-05-01T02:14:08.855Z,6.68
2023-05-01T02:16:13.715Z,6.28
2023-05-01T02:18:17.720Z,10.88
2023-05-01T02:20:22.482Z,7.15
2023-05-01T02:22:27.164Z,5.63
2023-05-01T02:24:33.151Z,7.28
2023-05-01T02:26:42.509Z,6.20
2023-05-01T02:28:45.348Z,8.00
2023-05-01T02:30:48.067Z,6.55
2023-05-01T02:32:50.910Z,6.75
2023-05-01T02:34:53.652Z,7.38
2023-05-01T02:36:56.335Z,6.68
2023-05-01T02:38:59.466Z,6.57
2023-05-01T02:41:04.685Z,7.07
2023-05-01T02:43:11.826Z,6.15
2023-05-01T02:45:20.574Z,7.22
2023-05-01T02:47:24.882Z,7.55
2023-05-01T02:49:28.715Z,6.80
2023-05-01T02:51:32.651Z,6.95
2023-05-01T02:53:36.337Z,8.30
2023-05-01T02:55:39.574Z,6.05
2023-05-01T02:57:43.794Z,6.85
2023-05-01T02:59:46.495Z,6.45
2023-05-01T03:01:49.269Z,7.25
2023-05-01T03:03:52.354Z,7.95
2023-05-01T03:05:55.744Z,7.15
2023-05-01T03:07:58.571Z,7.35
2023-05-01T03:10:03.077Z,9.15
2023-05-01T03:12:06.511Z,7.40
2023-05-01T03:14:11.253Z,7.25
2023-05-01T03:16:14.180Z,6.78
2023-05-01T03:18:17.018Z,9.05
2023-05-01T03:20:19.759Z,6.72
2023-05-01T03:22:22.667Z,7.57
2023-05-01T03:24:25.354Z,7.43
2023-05-01T03:26:28.505Z,7.97
2023-05-01T03:28:31.561Z,7.05
2023-05-01T03:30:36.258Z,7.22
2023-05-01T03:32:39.028Z,7.03
2023-05-01T03:34:41.791Z,7.05
2023-05-01T03:36:44.524Z,7.95
2023-05-01T03:38:47.621Z,8.75
2023-05-01T03:40:50.410Z,7.25
2023-05-01T03:42:53.919Z,7.25
2023-05-01T03:44:57.098Z,8.32
2023-05-01T03:47:01.753Z,7.88
2023-05-01T03:49:04.843Z,7.68
2023-05-01T03:51:07.702Z,7.43
2023-05-01T03:53:10.610Z,6.47
2023-05-01T03:55:13.329Z,7.82
2023-05-01T03:57:16.098Z,6.55
2023-05-01T03:59:19.005Z,8.10
2023-05-01T04:01:22.046Z,8.80
2023-05-01T04:03:26.257Z,7.03
2023-05-01T04:05:29.017Z,6.65
2023-05-01T04:07:31.927Z,7.60
2023-05-01T04:09:34.576Z,6.82
2023-05-01T04:11:37.348Z,6.75
2023-05-01T04:13:40.116Z,9.13
2023-05-01T04:15:45.836Z,7.20
2023-05-01T04:17:48.620Z,8.68
2023-05-01T04:19:52.781Z,7.53
2023-05-01T04:21:56.807Z,7.35
2023-05-01T04:23:59.585Z,7.22
2023-05-01T04:26:02.498Z,8.20
2023-05-01T04:28:05.602Z,6.70
2023-05-01T04:30:09.551Z,8.15
2023-05-01T04:32:12.377Z,6.55
2023-05-01T04:34:15.051Z,8.05
2023-05-01T04:36:19.177Z,7.55
2023-05-01T04:38:21.930Z,8.23
2023-05-01T04:40:24.672Z,8.57
2023-05-01T04:42:31.751Z,11.18
2023-05-01T04:44:35.886Z,8.05
2023-05-01T04:46:40.393Z,9.20
2023-05-01T04:48:47.378Z,7.20
2023-05-01T04:50:50.256Z,7.35
2023-05-01T04:52:54.369Z,8.30
2023-05-01T04:54:57.944Z,7.07
2023-05-01T04:57:00.764Z,7.18
2023-05-01T04:59:03.565Z,6.15
2023-05-01T05:01:06.429Z,6.60
2023-05-01T05:03:09.314Z,6.75
2023-05-01T05:05:12.310Z,6.88
2023-05-01T05:07:15.156Z,7.28
2023-05-01T05:09:20.178Z,8.43
2023-05-01T05:11:23.196Z,7.55
2023-05-01T05:13:25.907Z,8.02
2023-05-01T05:15:28.682Z,7.78
2023-05-01T05:17:31.532Z,7.43
2023-05-01T05:19:34.316Z,8.38
2023-05-01T05:21:37.290Z,7.57
2023-05-01T05:23:39.928Z,7.53
2023-05-01T05:25:44.086Z,8.80
2023-05-01T05:27:46.844Z,6.60
2023-05-01T05:29:49.628Z,9.30
2023-05-01T05:31:52.375Z,8.43
2023-05-01T05:33:55.131Z,7.68
2023-05-01T05:35:59.906Z,7.07
2023-05-01T05:38:03.066Z,9.18
2023-05-01T05:40:06.804Z,8.90
2023-05-01T05:42:10.901Z,9.80
2023-05-01T05:44:13.555Z,8.63
2023-05-01T05:46:16.318Z,8.18
2023-05-01T05:48:19.144Z,7.43
2023-05-01T05:50:21.942Z,9.30
2023-05-01T05:52:24.619Z,8.55
2023-05-01T05:54:27.432Z,8.75
2023-05-01T05:56:30.139Z,9.68
2023-05-01T05:58:34.316Z,10.80
2023-05-01T06:00:37.131Z,10.15
2023-05-01T06:02:40.228Z,8.95
2023-05-01T06:04:42.952Z,8.88
2023-05-01T06:06:45.788Z,11.45
2023-05-01T06:08:48.541Z,11.00
2023-05-01T06:10:51.410Z,10.63
2023-05-01T06:12:58.719Z,12.90
2023-05-01T06:15:17.844Z,12.30
2023-05-01T06:17:20.774Z,10.95
2023-05-01T06:19:23.560Z,9.13
2023-05-01T06:21:26.309Z,10.23
2023-05-01T06:23:29.453Z,10.90
2023-05-01T06:25:32.126Z,9.07
2023-05-01T06:27:34.853Z,9.65
2023-05-01T06:29:37.934Z,9.30
2023-05-01T06:31:42.086Z,8.25
2023-05-01T06:33:44.792Z,9.50
2023-05-01T06:35:47.496Z,9.27
2023-05-01T06:37:50.232Z,8.38
2023-05-01T06:39:52.941Z,9.27
2023-05-01T06:41:55.827Z,9.07
2023-05-01T06:43:58.521Z,8.10
2023-05-01T06:46:01.390Z,9.18
2023-05-01T06:48:06.125Z,8.48
2023-05-01T06:50:10.367Z,9.35
2023-05-01T06:52:13.042Z,8.77
2023-05-01T06:54:15.810Z,9.30
2023-05-01T06:56:18.544Z,9.75
2023-05-01T06:58:24.053Z,8.63
2023-05-01T07:00:27.279Z,9.40
2023-05-01T07:02:30.129Z,10.68
2023-05-01T07:04:34.623Z,9.65
2023-05-01T07:06:37.848Z,10.75
2023-05-01T07:08:40.678Z,10.68
2023-05-01T07:10:43.628Z,11.13
2023-05-01T07:12:46.512Z,10.07
2023-05-01T07:14:49.543Z,8.57
2023-05-01T07:16:52.402Z,8.10
2023-05-01T07:18:55.126Z,10.18
2023-05-01T07:20:59.131Z,9.18
2023-05-01T07:23:02.131Z,9.40
2023-05-01T07:25:05.191Z,10.02
2023-05-01T07:27:07.894Z,9.68
2023-05-01T07:29:11.863Z,10.18
2023-05-01T07:31:14.604Z,11.10
2023-05-01T07:33:17.391Z,8.98
2023-05-01T07:35:20.275Z,9.75
2023-05-01T07:37:24.354Z,9.20
2023-05-01T07:39:27.283Z,10.77
2023-05-01T07:41:29.975Z,9.32
2023-05-01T07:43:32.677Z,8.95
2023-05-01T07:45:35.412Z,9.70
2023-05-01T07:47:38.307Z,8.80
2023-05-01T07:49:41.349Z,9.65
2023-05-01T07:51:45.492Z,9.27
2023-05-01T07:53:50.012Z,8.57
2023-05-01T07:55:52.710Z,9.60
2023-05-01T07:57:56.064Z,10.07
2023-05-01T07:59:58.985Z,9.45
2023-05-01T08:02:02.038Z,10.00
2023-05-01T08:04:05.188Z,8.50
2023-05-01T08:06:08.223Z,12.38
2023-05-01T08:08:13.285Z,9.68
2023-05-01T08:10:17.570Z,9.30
2023-05-01T08:12:20.329Z,9.38
2023-05-01T08:14:23.078Z,8.70
2023-05-01T08:16:25.961Z,10.65
2023-05-01T08:18:28.760Z,8.82
2023-05-01T08:20:31.741Z,12.88
2023-05-01T08:22:34.404Z,9.63
2023-05-01T08:24:37.116Z,10.70
2023-05-01T08:26:41.337Z,10.90
2023-05-01T08:28:44.036Z,8.98
2023-05-01T08:30:46.769Z,10.45
2023-05-01T08:32:49.615Z,8.45
2023-05-01T08:34:52.517Z,9.85
2023-05-01T08:36:55.255Z,9.88
2023-05-01T08:38:58.181Z,9.50
2023-05-01T08:41:01.736Z,10.60
2023-05-01T08:43:06.191Z,9.65
2023-05-01T08:45:10.725Z,9.95
2023-05-01T08:47:17.421Z,11.32
2023-05-01T08:49:22.590Z,9.20
2023-05-01T08:51:26.853Z,11.25
2023-05-01T08:53:30.599Z,10.82
2023-05-01T08:55:35.997Z,10.70
2023-05-01T08:57:39.534Z,9.93
2023-05-01T08:59:45.043Z,8.00
2023-05-01T09:01:48.737Z,11.70
2023-05-01T09:03:53.787Z,9.68
2023-05-01T09:05:57.267Z,10.70
2023-05-01T09:08:00.579Z,8.43
2023-05-01T09:10:03.677Z,9.38
2023-05-01T09:12:15.890Z,10.85
2023-05-01T09:14:18.632Z,8.95
2023-05-01T09:16:23.240Z,9.52
2023-05-01T09:18:26.090Z,9.75
2023-05-01T09:20:29.620Z,8.15
2023-05-01T09:22:32.675Z,8.95
2023-05-01T09:24:35.451Z,9.15
2023-05-01T09:26:41.902Z,9.07
2023-05-01T09:30:47.691Z,7.78
2023-05-01T09:33:05.691Z,7.53
2023-05-01T09:35:13.501Z,8.40
2023-05-01T09:37:28.570Z,8.27
2023-05-01T09:39:31.373Z,8.35
2023-05-01T09:41:34.268Z,7.47
2023-05-01T09:43:37.051Z,7.35
2023-05-01T09:45:40.174Z,7.40
2023-05-01T09:47:43.772Z,8.35
2023-05-01T09:49:49.220Z,6.32
2023-05-01T09:51:52.041Z,6.38
2023-05-01T09:53:56.821Z,8.10
2023-05-01T09:56:02.984Z,7.05
2023-05-01T09:58:06.526Z,7.72
2023-05-01T10:00:11.025Z,7.53
2023-05-01T10:02:30.420Z,7.38
2023-05-01T10:04:34.125Z,7.88
2023-05-01T10:06:38.767Z,6.88
2023-05-01T10:08:48.965Z,6.57
2023-05-01T10:11:01.569Z,7.65
2023-05-01T10:13:15.172Z,7.72
2023-05-01T10:15:25.375Z,8.73
2023-05-01T10:17:28.740Z,8.25
2023-05-01T10:19:31.774Z,6.22
2023-05-01T10:21:35.426Z,6.78
2023-05-01T10:23:39.638Z,8.32
2023-05-01T10:25:43.111Z,8.93
2023-05-01T10:27:46.139Z,8.32
2023-05-01T10:29:52.450Z,8.70
2023-05-01T10:31:56.247Z,9.35
2023-05-01T10:34:00.692Z,11.18
2023-05-01T10:36:04.972Z,9.82
2023-05-01T10:38:10.825Z,9.52
2023-05-01T10:40:46.417Z,11.20
2023-05-01T10:43:14.261Z,9.57
2023-05-01T10:45:30.140Z,10.32
2023-05-01T10:47:45.629Z,8.73
2023-05-01T10:50:05.893Z,9.60
2023-05-01T10:52:08.748Z,10.07
2023-05-01T10:54:27.741Z,9.18
2023-05-01T10:56:44.077Z,8.77
2023-05-01T10:58:58.953Z,8.57
2023-05-01T11:01:35.412Z,10.70
2023-05-01T11:03:40.268Z,8.05
2023-05-01T11:06:09.449Z,9.23
2023-05-01T11:08:30.621Z,9.48
2023-05-01T11:10:33.413Z,8.30
2023-05-01T11:12:53.849Z,8.63
2023-05-01T11:15:04.586Z,9.93
2023-05-01T11:17:07.493Z,9.88
2023-05-01T11:19:12.761Z,11.90
2023-05-01T11:21:16.377Z,9.38
2023-05-01T11:23:23.736Z,10.02
2023-05-01T11:25:28.229Z,8.70
2023-05-01T11:27:31.536Z,9.05
2023-05-01T11:29:37.500Z,9.82
2023-05-01T11:31:41.297Z,10.40
2023-05-01T11:33:44.573Z,13.23
2023-05-01T11:35:47.723Z,11.10
2023-05-01T11:37:51.818Z,9.73
2023-05-01T11:39:55.188Z,8.88
2023-05-01T11:42:07.760Z,10.10
2023-05-01T11:44:13.845Z,10.07
2023-05-01T11:46:24.934Z,9.95
2023-05-01T11:48:28.449Z,8.65
2023-05-01T11:50:36.069Z,9.73
2023-05-01T11:52:48.638Z,9.68
2023-05-01T11:57:01.001Z,10.18
2023-05-01T11:59:12.584Z,10.23
2023-05-01T12:01:15.446Z,11.77
2023-05-01T12:03:19.695Z,9.30
2023-05-01T12:05:23.536Z,10.38
2023-05-01T12:07:26.279Z,10.00
2023-05-01T12:09:30.138Z,10.45
2023-05-01T12:11:33.054Z,10.02
2023-05-01T12:13:36.323Z,12.25
2023-05-01T12:15:41.980Z,9.38
2023-05-01T12:17:46.842Z,9.60
2023-05-01T12:19:51.210Z,13.05
2023-05-01T12:22:06.455Z,11.38
2023-05-01T12:24:10.444Z,9.82
2023-05-01T12:26:20.248Z,10.50
2023-05-01T12:28:23.121Z,10.48
2023-05-01T12:30:27.039Z,10.52
2023-05-01T12:32:33.633Z,9.98
2023-05-01T12:34:36.802Z,7.80
2023-05-01T12:36:40.946Z,9.95
2023-05-01T12:38:56.698Z,10.02
2023-05-01T12:41:01.859Z,10.75
2023-05-01T12:43:04.670Z,11.00
2023-05-01T12:45:09.705Z,10.00
2023-05-01T12:47:13.964Z,10.50
2023-05-01T12:49:20.460Z,11.40
2023-05-01T12:53:28.819Z,10.02
2023-05-01T12:55:34.222Z,9.43
2023-05-01T12:57:36.947Z,9.13
2023-05-01T12:59:41.106Z,9.90
2023-05-01T13:01:43.914Z,8.90
2023-05-01T13:03:46.814Z,10.48
2023-05-01T13:05:57.620Z,9.02
2023-05-01T13:08:00.467Z,9.20
2023-05-01T13:10:06.288Z,8.88
2023-05-01T13:12:10.246Z,11.35
2023-05-01T13:14:13.383Z,10.23
2023-05-01T13:16:17.303Z,9.45
2023-05-01T13:18:20.358Z,11.35
2023-05-01T13:20:27.675Z,10.65
2023-05-01T13:22:34.256Z,10.60
2023-05-01T13:24:39.194Z,10.07
2023-05-01T13:26:43.333Z,10.55
2023-05-01T13:28:46.368Z,9.10
2023-05-01T13:30:49.400Z,11.70
2023-05-01T13:32:52.256Z,14.05
2023-05-01T13:34:55.066Z,11.95
2023-05-01T13:36:58.662Z,14.02
2023-05-01T13:39:01.487Z,11.90
2023-05-01T13:41:05.233Z,15.20
2023-05-01T13:43:15.876Z,13.07
2023-05-01T13:45:21.465Z,13.00
2023-05-01T13:47:27.033Z,12.52
2023-05-01T13:49:29.970Z,13.77
2023-05-01T13:51:33.265Z,14.77
2023-05-01T13:53:36.912Z,14.60
2023-05-01T13:55:41.788Z,19.63
2023-05-01T13:57:44.575Z,20.73
2023-05-01T13:59:48.981Z,20.95
2023-05-01T14:01:51.991Z,20.63
2023-05-01T14:03:57.714Z,19.10
2023-05-01T14:06:00.723Z,19.15
2023-05-01T14:08:03.560Z,18.30
2023-05-01T14:10:11.034Z,14.80
2023-05-01T14:12:14.664Z,14.73
2023-05-01T14:14:18.335Z,16.50
2023-05-01T14:16:25.953Z,17.08
2023-05-01T14:18:29.011Z,16.55
2023-05-01T14:20:32.110Z,16.15
2023-05-01T14:22:43.310Z,16.02
2023-05-01T14:24:46.199Z,16.45
2023-05-01T14:26:50.270Z,17.02
2023-05-01T14:28:53.384Z,17.85
2023-05-01T14:30:56.258Z,18.00
2023-05-01T14:33:03.422Z,17.73
2023-05-01T14:35:10.962Z,16.63
2023-05-01T14:37:15.062Z,18.75
2023-05-01T14:39:18.113Z,18.88
2023-05-01T14:41:21.063Z,17.65
2023-05-01T14:43:23.799Z,16.77
2023-05-01T14:45:26.525Z,15.05
2023-05-01T14:47:29.268Z,16.67
2023-05-01T14:49:33.493Z,15.35
2023-05-01T14:51:36.254Z,14.20
2023-05-01T14:53:42.046Z,16.65
2023-05-01T14:55:44.754Z,16.50
2023-05-01T14:57:48.519Z,17.23
2023-05-01T14:59:51.305Z,14.70
2023-05-01T15:01:54.133Z,16.83
2023-05-01T15:03:57.198Z,15.75
2023-05-01T15:06:01.507Z,18.15
2023-05-01T15:08:05.664Z,17.55
2023-05-01T15:10:09.154Z,20.88
2023-05-01T15:12:11.853Z,23.13
2023-05-01T15:14:14.569Z,21.10
2023-05-01T15:16:17.719Z,21.27
2023-05-01T15:18:20.618Z,23.75
2023-05-01T15:20:24.430Z,21.00
2023-05-01T15:22:28.546Z,24.15
2023-05-01T15:24:31.269Z,24.70
2023-05-01T15:26:34.007Z,24.98
2023-05-01T15:28:36.836Z,25.02
2023-05-01T15:30:39.585Z,23.38
2023-05-01T15:32:42.541Z,22.67
2023-05-01T15:34:45.505Z,21.00
2023-05-01T15:36:48.207Z,20.23
2023-05-01T15:38:52.196Z,18.17
2023-05-01T15:40:55.061Z,19.92
2023-05-01T15:42:58.589Z,17.17
2023-05-01T15:45:03.055Z,15.18
2023-05-01T15:47:05.828Z,13.63
2023-05-01T15:49:10.008Z,13.35
2023-05-01T15:51:12.886Z,13.25
2023-05-01T15:53:17.091Z,11.60
2023-05-01T15:55:21.705Z,9.85
2023-05-01T15:57:24.920Z,10.68
2023-05-01T15:59:27.787Z,10.50
2023-05-01T16:01:32.151Z,9.75
2023-05-01T16:03:35.392Z,8.77
2023-05-01T16:05:40.597Z,12.07
2023-05-01T16:07:45.868Z,9.18
2023-05-01T16:09:49.205Z,9.57
2023-05-01T16:11:53.567Z,8.68
2023-05-01T16:13:56.537Z,10.55
2023-05-01T16:15:59.429Z,10.43
2023-05-01T16:18:04.545Z,11.95
2023-05-01T16:20:11.355Z,14.20
2023-05-01T16:22:15.720Z,12.95
2023-05-01T16:24:18.620Z,11.65
2023-05-01T16:26:26.093Z,11.75
2023-05-01T16:28:31.712Z,12.07
2023-05-01T16:30:34.641Z,13.05
2023-05-01T16:32:37.529Z,13.65
2023-05-01T16:34:41.128Z,12.70
2023-05-01T16:36:44.816Z,13.38
2023-05-01T16:38:47.868Z,12.20
2023-05-01T16:40:51.708Z,14.95
2023-05-01T16:42:56.171Z,12.82
2023-05-01T16:45:01.732Z,13.65
2023-05-01T16:47:05.136Z,13.45
2023-05-01T16:49:08.021Z,12.48
2023-05-01T16:51:11.921Z,12.48
2023-05-01T16:53:15.234Z,12.57
2023-05-01T16:55:18.656Z,11.35
2023-05-01T16:57:21.460Z,11.98
2023-05-01T16:59:24.218Z,13.68
2023-05-01T17:01:28.540Z,14.95
2023-05-01T17:03:31.284Z,13.95
2023-05-01T17:05:34.002Z,13.07
2023-05-01T17:07:36.697Z,13.07
2023-05-01T17:09:39.537Z,11.82
2023-05-01T17:11:43.149Z,9.13
2023-05-01T17:13:45.957Z,9.60
2023-05-01T17:15:49.011Z,8.85
2023-05-01T17:17:53.733Z,8.25
2023-05-01T17:19:56.840Z,8.43
2023-05-01T17:21:59.840Z,8.38
2023-05-01T17:24:02.783Z,12.65
2023-05-01T17:26:05.802Z,9.63
2023-05-01T17:28:08.690Z,11.63
2023-05-01T17:30:12.218Z,12.18
2023-05-01T17:32:25.738Z,12.15
2023-05-01T17:34:37.490Z,13.10
2023-05-01T17:36:40.224Z,12.68
2023-05-01T17:38:42.928Z,11.73
2023-05-01T17:40:46.298Z,13.70
2023-05-01T17:42:49.017Z,12.68
2023-05-01T17:44:51.773Z,13.10
2023-05-01T17:46:56.055Z,14.98
2023-05-01T17:48:58.807Z,15.32
2023-05-01T17:51:02.989Z,14.15
2023-05-01T17:53:05.646Z,16.30
2023-05-01T17:55:09.096Z,12.80
2023-05-01T17:57:11.915Z,12.77
2023-05-01T17:59:14.681Z,14.95
2023-05-01T18:01:17.661Z,21.17
2023-05-01T18:03:20.561Z,12.73
2023-05-01T18:05:23.661Z,16.42
2023-05-01T18:07:30.391Z,19.92
2023-05-01T18:09:33.193Z,7.57
2023-05-01T18:11:36.148Z,21.95
2023-05-01T18:13:40.007Z,22.00
2023-05-01T18:15:42.877Z,14.93
2023-05-01T18:17:45.664Z,9.80
2023-05-01T18:19:48.514Z,11.80
2023-05-01T18:21:51.732Z,9.48
2023-05-01T18:23:55.853Z,8.93
2023-05-01T18:25:58.596Z,13.45
2023-05-01T18:28:01.549Z,21.30
2023-05-01T18:30:04.594Z,15.13
2023-05-01T18:32:09.363Z,14.32
2023-05-01T18:34:12.946Z,10.77
2023-05-01T18:36:15.657Z,14.65
2023-05-01T18:38:18.438Z,12.73
2023-05-01T18:40:22.757Z,12.02
2023-05-01T18:42:25.828Z,12.15
2023-05-01T18:44:28.635Z,11.88
2023-05-01T18:46:31.594Z,11.98
2023-05-01T18:48:34.563Z,10.98
2023-05-01T18:50:37.256Z,14.13
2023-05-01T18:52:41.789Z,14.57
2023-05-01T18:54:44.701Z,12.32
2023-05-01T18:56:49.007Z,11.82
2023-05-01T18:58:51.831Z,12.20
2023-05-01T19:00:56.130Z,12.82
2023-05-01T19:02:59.010Z,12.15
2023-05-01T19:05:01.832Z,11.48
2023-05-01T19:07:05.174Z,11.85
2023-05-01T19:09:07.955Z,11.48
2023-05-01T19:11:10.800Z,10.82
2023-05-01T19:13:14.974Z,11.00
2023-05-01T19:15:17.985Z,16.20
2023-05-01T19:17:20.697Z,11.27
2023-05-01T19:19:23.407Z,14.38
2023-05-01T19:21:26.429Z,12.32
2023-05-01T19:23:30.644Z,10.73
2023-05-01T19:25:34.274Z,11.80
2023-05-01T19:27:37.162Z,12.52
2023-05-01T19:29:41.605Z,14.45
2023-05-01T19:31:44.486Z,11.20
2023-05-01T19:33:48.073Z,12.60
2023-05-01T19:35:50.801Z,12.63
2023-05-01T19:37:56.146Z,11.75
2023-05-01T19:39:59.187Z,12.52
2023-05-01T19:42:02.301Z,11.75
2023-05-01T19:44:05.342Z,11.40
2023-05-01T19:46:09.906Z,13.70
2023-05-01T19:48:13.021Z,9.40
2023-05-01T19:50:18.464Z,11.02
2023-05-01T19:52:21.411Z,10.77
2023-05-01T19:54:25.965Z,11.23
2023-05-01T19:56:28.673Z,10.18
2023-05-01T19:58:32.042Z,11.63
2023-05-01T20:00:35.814Z,11.50
2023-05-01T20:02:43.428Z,10.75
2023-05-01T20:04:46.664Z,11.88
2023-05-01T20:06:49.582Z,10.07
2023-05-01T20:08:52.461Z,11.93
2023-05-01T20:10:56.726Z,13.88
2023-05-01T20:12:59.962Z,8.93
2023-05-01T20:15:02.745Z,12.48
2023-05-01T20:17:07.165Z,14.82
2023-05-01T20:19:11.598Z,15.07
2023-05-01T20:21:14.570Z,13.10
2023-05-01T20:23:18.973Z,14.27
2023-05-01T20:25:21.699Z,13.65
2023-05-01T20:27:24.522Z,10.30
2023-05-01T20:29:27.337Z,10.20
2023-05-01T20:31:30.237Z,11.27
2023-05-01T20:33:32.985Z,9.98
2023-05-01T20:35:37.103Z,10.77
2023-05-01T20:37:39.948Z,11.23
2023-05-01T20:39:42.650Z,12.43
2023-05-01T20:41:45.599Z,10.35
2023-05-01T20:43:48.381Z,9.98
2023-05-01T20:45:51.143Z,8.45
2023-05-01T20:47:54.531Z,9.70
2023-05-01T20:49:57.682Z,9.70
2023-05-01T20:52:02.402Z,9.95
2023-05-01T20:54:05.935Z,10.38
2023-05-01T20:56:08.721Z,10.23
2023-05-01T20:58:11.490Z,9.20
2023-05-01T21:00:14.586Z,9.73
2023-05-01T21:02:17.965Z,10.98
2023-05-01T21:04:20.980Z,9.75
2023-05-01T21:06:23.968Z,10.52
2023-05-01T21:08:28.371Z,12.48
2023-05-01T21:10:31.613Z,10.00
2023-05-01T21:12:34.867Z,10.55
2023-05-01T21:14:38.672Z,9.55
2023-05-01T21:16:41.963Z,11.32
2023-05-01T21:18:44.845Z,10.90
2023-05-01T21:20:48.876Z,10.88
2023-05-01T21:22:51.672Z,10.55
2023-05-01T21:24:57.541Z,10.10
2023-05-01T21:27:01.572Z,11.35
2023-05-01T21:29:04.381Z,10.75
2023-05-01T21:31:07.249Z,9.85
2023-05-01T21:33:15.092Z,8.35
2023-05-01T21:35:20.062Z,9.20
2023-05-01T21:37:23.473Z,8.82
2023-05-01T21:39:26.443Z,9.18
2023-05-01T21:41:30.665Z,8.52
2023-05-01T21:43:34.534Z,9.65
2023-05-01T21:45:40.443Z,7.72
2023-05-01T21:47:45.308Z,9.15
2023-05-01T21:49:48.448Z,7.78
2023-05-01T21:51:51.266Z,7.78
2023-05-01T21:53:54.381Z,10.43
2023-05-01T21:55:57.183Z,8.63
2023-05-01T21:58:01.630Z,8.13
2023-05-01T22:00:09.202Z,10.15
2023-05-01T22:02:13.194Z,8.15
2023-05-01T22:04:18.913Z,7.50
2023-05-01T22:06:24.156Z,8.82
2023-05-01T22:08:26.907Z,9.23
2023-05-01T22:10:29.760Z,9.75
2023-05-01T22:12:32.587Z,8.23
2023-05-01T22:14:47.187Z,9.73
2023-05-01T22:16:50.466Z,9.20
2023-05-01T22:18:53.255Z,9.30
2023-05-01T22:20:56.228Z,8.63
2023-05-01T22:22:58.994Z,8.15
2023-05-01T22:25:01.843Z,8.40
2023-05-01T22:27:04.773Z,8.13
2023-05-01T22:29:08.310Z,7.72
2023-05-01T22:31:12.627Z,9.05
2023-05-01T22:33:15.390Z,10.07
2023-05-01T22:35:18.427Z,8.18
2023-05-01T22:37:21.292Z,9.23
2023-05-01T22:39:24.074Z,8.10
2023-05-01T22:41:26.995Z,10.40
2023-05-01T22:43:29.748Z,9.20
2023-05-01T22:45:32.633Z,9.13
2023-05-01T22:47:36.760Z,7.88
2023-05-01T22:49:39.513Z,7.75
2023-05-01T22:51:42.265Z,7.63
2023-05-01T22:53:45.590Z,8.20
2023-05-01T22:55:48.446Z,9.20
2023-05-01T22:57:51.176Z,7.93
2023-05-01T22:59:54.098Z,7.00
2023-05-01T23:01:56.896Z,8.50
2023-05-01T23:04:01.276Z,9.30
2023-05-01T23:06:04.369Z,7.85
2023-05-01T23:08:07.442Z,7.60
2023-05-01T23:10:10.811Z,8.70
2023-05-01T23:12:19.398Z,9.32
2023-05-01T23:14:22.079Z,8.77
2023-05-01T23:16:25.027Z,10.48
2023-05-01T23:18:32.835Z,7.88
2023-05-01T23:20:39.942Z,9.80
2023-05-01T23:22:42.636Z,11.93
2023-05-01T23:24:48.213Z,9.60
2023-05-01T23:26:51.006Z,10.00
2023-05-01T23:28:54.323Z,11.02
2023-05-01T23:30:58.202Z,9.85
2023-05-01T23:33:00.984Z,9.77
2023-05-01T23:35:10.666Z,9.82
2023-05-01T23:37:14.750Z,9.10
2023-05-01T23:39:17.423Z,9.43
2023-05-01T23:41:20.110Z,11.68
2023-05-01T23:43:23.205Z,10.25
2023-05-01T23:45:25.914Z,9.75
2023-05-01T23:47:28.792Z,9.02
2023-05-01T23:49:31.814Z,10.02
2023-05-01T23:51:35.155Z,8.98
2023-05-01T23:53:39.209Z,10.48
2023-05-01T23:55:43.580Z,9.60
2023-05-01T23:57:47.988Z,9.93
2023-05-01T23:59:50.831Z,10.45
